sensor_id;sensor_type;location;lat;lon;timestamp;pressure;altitude;pressure_sealevel;temperature;humidity
78613;BME280;67933;51.060;3.638;2023-07-22T00:01:35;101607.47;;;14.51;81.40
78613;BME280;67933;51.060;3.638;2023-07-22T00:04:02;101619.78;;;14.53;81.29
78613;BME280;67933;51.060;3.638;2023-07-22T00:06:28;101608.16;;;14.54;81.28
78613;BME280;67933;51.060;3.638;2023-07-22T00:08:53;101610.84;;;14.54;81.39
78613;BME280;67933;51.060;3.638;2023-07-22T00:11:19;101602.06;;;14.52;81.53
78613;BME280;67933;51.060;3.638;2023-07-22T00:13:45;101605.97;;;14.61;81.45
78613;BME280;67933;51.060;3.638;2023-07-22T00:16:12;101606.75;;;14.63;81.74
78613;BME280;67933;51.060;3.638;2023-07-22T00:18:37;101604.72;;;14.67;81.58
78613;BME280;67933;51.060;3.638;2023-07-22T00:21:03;101609.97;;;14.68;81.57
78613;BME280;67933;51.060;3.638;2023-07-22T00:23:29;101604.63;;;14.68;81.68
78613;BME280;67933;51.060;3.638;2023-07-22T00:25:55;101602.50;;;14.73;81.30
78613;BME280;67933;51.060;3.638;2023-07-22T00:28:21;101602.34;;;14.76;81.44
78613;BME280;67933;51.060;3.638;2023-07-22T00:30:46;101596.13;;;14.76;81.79
78613;BME280;67933;51.060;3.638;2023-07-22T00:33:14;101603.69;;;14.69;81.98
78613;BME280;67933;51.060;3.638;2023-07-22T00:35:39;101597.66;;;14.66;82.58
78613;BME280;67933;51.060;3.638;2023-07-22T00:38:05;101598.03;;;14.74;82.33
78613;BME280;67933;51.060;3.638;2023-07-22T00:40:30;101594.50;;;14.73;82.40
78613;BME280;67933;51.060;3.638;2023-07-22T00:42:57;101592.97;;;14.83;82.12
78613;BME280;67933;51.060;3.638;2023-07-22T00:45:22;101599.09;;;14.85;82.06
78613;BME280;67933;51.060;3.638;2023-07-22T00:47:48;101606.16;;;14.86;82.64
78613;BME280;67933;51.060;3.638;2023-07-22T00:50:14;101603.25;;;14.89;82.00
78613;BME280;67933;51.060;3.638;2023-07-22T00:52:40;101596.13;;;14.90;82.72
78613;BME280;67933;51.060;3.638;2023-07-22T00:55:06;101588.78;;;14.93;82.46
78613;BME280;67933;51.060;3.638;2023-07-22T00:57:32;101587.91;;;14.93;82.90
78613;BME280;67933;51.060;3.638;2023-07-22T00:59:57;101585.34;;;14.91;82.73
78613;BME280;67933;51.060;3.638;2023-07-22T01:02:23;101588.09;;;14.90;82.97
78613;BME280;67933;51.060;3.638;2023-07-22T01:04:49;101578.66;;;14.84;83.33
78613;BME280;67933;51.060;3.638;2023-07-22T01:07:15;101578.66;;;14.84;83.67
78613;BME280;67933;51.060;3.638;2023-07-22T01:09:42;101585.06;;;14.82;83.53
78613;BME280;67933;51.060;3.638;2023-07-22T01:12:08;101578.09;;;14.79;83.89
78613;BME280;67933;51.060;3.638;2023-07-22T01:14:35;101577.72;;;14.71;84.24
78613;BME280;67933;51.060;3.638;2023-07-22T01:17:05;101574.09;;;14.72;84.50
78613;BME280;67933;51.060;3.638;2023-07-22T01:19:31;101570.84;;;14.67;84.80
78613;BME280;67933;51.060;3.638;2023-07-22T01:22:01;101561.91;;;14.68;84.59
78613;BME280;67933;51.060;3.638;2023-07-22T01:24:30;101561.91;;;14.68;85.08
78613;BME280;67933;51.060;3.638;2023-07-22T01:26:56;101559.41;;;14.65;85.24
78613;BME280;67933;51.060;3.638;2023-07-22T01:29:22;101562.28;;;14.62;85.42
78613;BME280;67933;51.060;3.638;2023-07-22T01:31:50;101563.63;;;14.69;85.28
78613;BME280;67933;51.060;3.638;2023-07-22T01:34:16;101556.16;;;14.74;85.12
78613;BME280;67933;51.060;3.638;2023-07-22T01:36:42;101560.56;;;14.75;85.45
78613;BME280;67933;51.060;3.638;2023-07-22T01:39:08;101548.06;;;14.76;85.57
78613;BME280;67933;51.060;3.638;2023-07-22T01:41:33;101550.63;;;14.77;85.24
78613;BME280;67933;51.060;3.638;2023-07-22T01:43:59;101555.97;;;14.77;85.40
78613;BME280;67933;51.060;3.638;2023-07-22T01:46:25;101552.53;;;14.75;85.82
78613;BME280;67933;51.060;3.638;2023-07-22T01:48:50;101555.00;;;14.64;86.25
78613;BME280;67933;51.060;3.638;2023-07-22T01:51:16;101552.75;;;14.58;86.59
78613;BME280;67933;51.060;3.638;2023-07-22T01:53:41;101553.31;;;14.63;86.34
78613;BME280;67933;51.060;3.638;2023-07-22T01:56:06;101548.53;;;14.68;86.50
78613;BME280;67933;51.060;3.638;2023-07-22T01:58:32;101549.09;;;14.73;86.24
78613;BME280;67933;51.060;3.638;2023-07-22T02:00:58;101551.75;;;14.73;86.37
78613;BME280;67933;51.060;3.638;2023-07-22T02:03:23;101544.91;;;14.69;86.47
78613;BME280;67933;51.060;3.638;2023-07-22T02:05:49;101548.63;;;14.67;86.52
78613;BME280;67933;51.060;3.638;2023-07-22T02:08:14;101541.66;;;14.64;86.73
78613;BME280;67933;51.060;3.638;2023-07-22T02:10:40;101541.28;;;14.56;87.10
78613;BME280;67933;51.060;3.638;2023-07-22T02:13:05;101544.66;;;14.45;87.28
78613;BME280;67933;51.060;3.638;2023-07-22T02:15:32;101547.00;;;14.36;87.66
78613;BME280;67933;51.060;3.638;2023-07-22T02:17:57;101551.19;;;14.25;88.46
78613;BME280;67933;51.060;3.638;2023-07-22T02:20:23;101545.66;;;14.14;89.14
78613;BME280;67933;51.060;3.638;2023-07-22T02:22:49;101537.44;;;14.03;89.49
78613;BME280;67933;51.060;3.638;2023-07-22T02:25:14;101533.72;;;13.92;90.27
78613;BME280;67933;51.060;3.638;2023-07-22T02:27:40;101528.25;;;13.79;90.92
78613;BME280;67933;51.060;3.638;2023-07-22T02:30:07;101527.75;;;13.72;90.85
78613;BME280;67933;51.060;3.638;2023-07-22T02:32:38;101524.59;;;13.66;91.40
78613;BME280;67933;51.060;3.638;2023-07-22T02:35:05;101518.69;;;13.61;92.08
78613;BME280;67933;51.060;3.638;2023-07-22T02:37:30;101520.28;;;13.49;91.94
78613;BME280;67933;51.060;3.638;2023-07-22T02:39:56;101521.50;;;13.43;92.40
78613;BME280;67933;51.060;3.638;2023-07-22T02:42:21;101518.41;;;13.35;93.40
78613;BME280;67933;51.060;3.638;2023-07-22T02:44:47;101525.91;;;13.29;93.46
78613;BME280;67933;51.060;3.638;2023-07-22T02:47:13;101515.75;;;13.35;93.83
78613;BME280;67933;51.060;3.638;2023-07-22T02:49:39;101535.19;;;13.37;93.57
78613;BME280;67933;51.060;3.638;2023-07-22T02:52:05;101530.44;;;13.42;93.80
78613;BME280;67933;51.060;3.638;2023-07-22T02:54:37;101521.50;;;13.43;93.34
78613;BME280;67933;51.060;3.638;2023-07-22T02:57:02;101519.91;;;13.55;93.33
78613;BME280;67933;51.060;3.638;2023-07-22T02:59:28;101523.34;;;13.57;93.50
78613;BME280;67933;51.060;3.638;2023-07-22T03:01:54;101516.03;;;13.61;93.37
78613;BME280;67933;51.060;3.638;2023-07-22T03:04:19;101522.88;;;13.65;93.45
78613;BME280;67933;51.060;3.638;2023-07-22T03:06:45;101515.59;;;13.68;93.30
78613;BME280;67933;51.060;3.638;2023-07-22T03:09:10;101511.28;;;13.66;93.27
78613;BME280;67933;51.060;3.638;2023-07-22T03:11:36;101523.09;;;13.62;93.56
78613;BME280;67933;51.060;3.638;2023-07-22T03:14:01;101519.91;;;13.55;94.10
78613;BME280;67933;51.060;3.638;2023-07-22T03:16:27;101529.72;;;13.55;94.00
78613;BME280;67933;51.060;3.638;2023-07-22T03:18:52;101528.56;;;13.44;94.44
78613;BME280;67933;51.060;3.638;2023-07-22T03:21:18;101528.06;;;13.38;94.92
78613;BME280;67933;51.060;3.638;2023-07-22T03:23:43;101530.81;;;13.36;95.58
78613;BME280;67933;51.060;3.638;2023-07-22T03:26:08;101530.97;;;13.33;95.11
78613;BME280;67933;51.060;3.638;2023-07-22T03:28:34;101532.56;;;13.22;95.90
78613;BME280;67933;51.060;3.638;2023-07-22T03:31:00;101530.84;;;13.21;95.84
78613;BME280;67933;51.060;3.638;2023-07-22T03:33:25;101532.25;;;13.10;96.20
78613;BME280;67933;51.060;3.638;2023-07-22T03:35:51;101541.81;;;12.99;95.75
78613;BME280;67933;51.060;3.638;2023-07-22T03:38:16;101538.09;;;13.01;96.67
78613;BME280;67933;51.060;3.638;2023-07-22T03:40:42;101543.44;;;13.01;96.71
78613;BME280;67933;51.060;3.638;2023-07-22T03:43:07;101536.66;;;12.96;96.50
78613;BME280;67933;51.060;3.638;2023-07-22T03:45:32;101544.13;;;12.89;96.99
78613;BME280;67933;51.060;3.638;2023-07-22T03:47:59;101534.44;;;12.88;97.51
78613;BME280;67933;51.060;3.638;2023-07-22T03:50:25;101538.53;;;12.94;98.09
78613;BME280;67933;51.060;3.638;2023-07-22T03:52:51;101542.84;;;12.96;97.64
78613;BME280;67933;51.060;3.638;2023-07-22T03:55:16;101536.56;;;12.97;98.06
78613;BME280;67933;51.060;3.638;2023-07-22T03:57:43;101543.63;;;12.98;98.35
78613;BME280;67933;51.060;3.638;2023-07-22T04:00:09;101543.34;;;13.03;98.21
78613;BME280;67933;51.060;3.638;2023-07-22T04:02:34;101541.47;;;13.05;97.85
78613;BME280;67933;51.060;3.638;2023-07-22T04:05:00;101543.53;;;13.00;97.57
78613;BME280;67933;51.060;3.638;2023-07-22T04:07:25;101540.97;;;12.98;98.12
78613;BME280;67933;51.060;3.638;2023-07-22T04:09:52;101540.44;;;12.92;97.60
78613;BME280;67933;51.060;3.638;2023-07-22T04:12:18;101529.28;;;12.85;97.11
78613;BME280;67933;51.060;3.638;2023-07-22T04:14:43;101534.63;;;12.85;97.93
78613;BME280;67933;51.060;3.638;2023-07-22T04:17:08;101536.41;;;12.85;97.32
78613;BME280;67933;51.060;3.638;2023-07-22T04:19:34;101538.47;;;12.80;98.29
78613;BME280;67933;51.060;3.638;2023-07-22T04:21:59;101542.91;;;12.79;98.08
78613;BME280;67933;51.060;3.638;2023-07-22T04:24:32;101543.97;;;12.77;98.32
78613;BME280;67933;51.060;3.638;2023-07-22T04:26:58;101546.38;;;12.81;98.60
78613;BME280;67933;51.060;3.638;2023-07-22T04:29:23;101548.50;;;12.75;97.68
78613;BME280;67933;51.060;3.638;2023-07-22T04:31:48;101546.09;;;12.70;98.81
78613;BME280;67933;51.060;3.638;2023-07-22T04:34:14;101539.59;;;12.76;98.64
78613;BME280;67933;51.060;3.638;2023-07-22T04:36:39;101548.16;;;12.81;98.75
78613;BME280;67933;51.060;3.638;2023-07-22T04:39:05;101551.97;;;12.77;98.46
78613;BME280;67933;51.060;3.638;2023-07-22T04:41:31;101543.34;;;12.71;98.96
78613;BME280;67933;51.060;3.638;2023-07-22T04:43:57;101556.25;;;12.79;99.02
78613;BME280;67933;51.060;3.638;2023-07-22T04:46:24;101555.06;;;12.85;98.88
78613;BME280;67933;51.060;3.638;2023-07-22T04:48:49;101551.25;;;12.89;98.23
78613;BME280;67933;51.060;3.638;2023-07-22T04:51:15;101557.28;;;12.92;98.96
78613;BME280;67933;51.060;3.638;2023-07-22T04:53:40;101553.56;;;12.95;98.36
78613;BME280;67933;51.060;3.638;2023-07-22T04:56:05;101558.66;;;12.99;98.04
78613;BME280;67933;51.060;3.638;2023-07-22T04:58:31;101549.72;;;13.00;98.37
78613;BME280;67933;51.060;3.638;2023-07-22T05:00:57;101552.13;;;13.05;98.59
78613;BME280;67933;51.060;3.638;2023-07-22T05:03:23;101552.13;;;13.05;98.24
78613;BME280;67933;51.060;3.638;2023-07-22T05:05:51;101551.44;;;13.17;98.33
78613;BME280;67933;51.060;3.638;2023-07-22T05:08:17;101550.06;;;13.26;97.88
78613;BME280;67933;51.060;3.638;2023-07-22T05:10:42;101546.22;;;13.31;98.37
78613;BME280;67933;51.060;3.638;2023-07-22T05:13:08;101543.75;;;13.42;98.06
78613;BME280;67933;51.060;3.638;2023-07-22T05:15:33;101548.19;;;13.58;97.34
78613;BME280;67933;51.060;3.638;2023-07-22T05:17:59;101546.88;;;13.65;97.48
78613;BME280;67933;51.060;3.638;2023-07-22T05:20:24;101549.88;;;13.74;96.76
78613;BME280;67933;51.060;3.638;2023-07-22T05:22:49;101539.53;;;13.84;96.45
78613;BME280;67933;51.060;3.638;2023-07-22T05:25:15;101546.97;;;13.93;95.99
78613;BME280;67933;51.060;3.638;2023-07-22T05:27:40;101556.13;;;14.03;96.26
78613;BME280;67933;51.060;3.638;2023-07-22T05:30:06;101555.56;;;14.12;95.94
78613;BME280;67933;51.060;3.638;2023-07-22T05:32:32;101565.75;;;14.20;94.70
78613;BME280;67933;51.060;3.638;2023-07-22T05:34:58;101566.16;;;14.28;94.33
78613;BME280;67933;51.060;3.638;2023-07-22T05:37:24;101559.97;;;14.27;94.40
78613;BME280;67933;51.060;3.638;2023-07-22T05:39:50;101555.00;;;14.36;94.62
78613;BME280;67933;51.060;3.638;2023-07-22T05:42:15;101554.56;;;14.43;94.48
78613;BME280;67933;51.060;3.638;2023-07-22T05:44:41;101552.28;;;14.51;93.39
78613;BME280;67933;51.060;3.638;2023-07-22T05:47:06;101549.13;;;14.59;93.35
78613;BME280;67933;51.060;3.638;2023-07-22T05:49:32;101542.25;;;14.69;93.25
78613;BME280;67933;51.060;3.638;2023-07-22T05:51:57;101535.34;;;14.79;92.94
78613;BME280;67933;51.060;3.638;2023-07-22T05:54:22;101544.72;;;14.86;92.11
78613;BME280;67933;51.060;3.638;2023-07-22T05:56:48;101547.06;;;14.91;91.78
78613;BME280;67933;51.060;3.638;2023-07-22T05:59:13;101542.09;;;14.99;91.25
78613;BME280;67933;51.060;3.638;2023-07-22T06:01:39;101537.75;;;15.11;91.05
78613;BME280;67933;51.060;3.638;2023-07-22T06:04:04;101528.25;;;15.19;89.70
78613;BME280;67933;51.060;3.638;2023-07-22T06:06:30;101539.41;;;15.26;89.88
78613;BME280;67933;51.060;3.638;2023-07-22T06:08:56;101531.19;;;15.29;89.63
78613;BME280;67933;51.060;3.638;2023-07-22T06:11:21;101527.97;;;15.24;89.15
78613;BME280;67933;51.060;3.638;2023-07-22T06:13:47;101526.88;;;15.14;89.08
78613;BME280;67933;51.060;3.638;2023-07-22T06:16:12;101529.53;;;15.14;89.73
78613;BME280;67933;51.060;3.638;2023-07-22T06:18:38;101538.00;;;15.20;89.03
78613;BME280;67933;51.060;3.638;2023-07-22T06:21:03;101528.84;;;15.24;89.02
78613;BME280;67933;51.060;3.638;2023-07-22T06:23:29;101531.09;;;15.30;88.90
78613;BME280;67933;51.060;3.638;2023-07-22T06:25:54;101540.88;;;15.44;88.07
78613;BME280;67933;51.060;3.638;2023-07-22T06:28:19;101537.69;;;15.52;87.66
78613;BME280;67933;51.060;3.638;2023-07-22T06:30:45;101529.84;;;15.63;87.17
78613;BME280;67933;51.060;3.638;2023-07-22T06:33:10;101538.84;;;15.74;86.37
78613;BME280;67933;51.060;3.638;2023-07-22T06:35:36;101539.59;;;15.89;85.34
78613;BME280;67933;51.060;3.638;2023-07-22T06:38:01;101527.94;;;16.03;85.17
78613;BME280;67933;51.060;3.638;2023-07-22T06:40:26;101528.91;;;16.27;84.41
78613;BME280;67933;51.060;3.638;2023-07-22T06:42:52;101536.38;;;16.35;83.38
78613;BME280;67933;51.060;3.638;2023-07-22T06:45:17;101531.75;;;16.49;82.36
78613;BME280;67933;51.060;3.638;2023-07-22T06:47:43;101535.59;;;16.83;82.03
78613;BME280;67933;51.060;3.638;2023-07-22T06:50:09;101530.25;;;17.31;80.29
78613;BME280;67933;51.060;3.638;2023-07-22T06:52:34;101526.44;;;17.22;78.78
78613;BME280;67933;51.060;3.638;2023-07-22T06:55:00;101529.19;;;17.34;79.37
78613;BME280;67933;51.060;3.638;2023-07-22T06:57:25;101528.31;;;17.57;78.50
78613;BME280;67933;51.060;3.638;2023-07-22T06:59:53;101525.94;;;17.65;77.43
78613;BME280;67933;51.060;3.638;2023-07-22T07:02:19;101507.19;;;17.52;76.58
78613;BME280;67933;51.060;3.638;2023-07-22T07:04:44;101514.28;;;17.29;78.17
78613;BME280;67933;51.060;3.638;2023-07-22T07:07:10;101508.75;;;17.20;79.24
78613;BME280;67933;51.060;3.638;2023-07-22T07:09:37;101507.78;;;16.97;79.58
78613;BME280;67933;51.060;3.638;2023-07-22T07:12:03;101509.31;;;17.12;80.05
78613;BME280;67933;51.060;3.638;2023-07-22T07:14:28;101513.66;;;17.50;78.12
78613;BME280;67933;51.060;3.638;2023-07-22T07:16:54;101515.59;;;17.83;76.59
78613;BME280;67933;51.060;3.638;2023-07-22T07:19:19;101514.72;;;17.82;76.03
78613;BME280;67933;51.060;3.638;2023-07-22T07:21:45;101522.41;;;17.52;76.17
78613;BME280;67933;51.060;3.638;2023-07-22T07:24:10;101527.75;;;17.41;76.98
78613;BME280;67933;51.060;3.638;2023-07-22T07:26:36;101520.09;;;17.47;77.07
78613;BME280;67933;51.060;3.638;2023-07-22T07:29:01;101523.00;;;17.44;77.55
78613;BME280;67933;51.060;3.638;2023-07-22T07:31:27;101513.38;;;17.42;77.17
78613;BME280;67933;51.060;3.638;2023-07-22T07:33:52;101518.00;;;17.16;77.47
78613;BME280;67933;51.060;3.638;2023-07-22T07:36:18;101516.84;;;17.07;78.42
78613;BME280;67933;51.060;3.638;2023-07-22T07:38:43;101517.06;;;17.04;78.46
78613;BME280;67933;51.060;3.638;2023-07-22T07:41:10;101524.00;;;16.96;79.30
78613;BME280;67933;51.060;3.638;2023-07-22T07:43:37;101523.06;;;17.08;78.01
78613;BME280;67933;51.060;3.638;2023-07-22T07:46:32;101518.19;;;17.25;77.91
78613;BME280;67933;51.060;3.638;2023-07-22T07:49:00;101518.03;;;17.51;78.03
78613;BME280;67933;51.060;3.638;2023-07-22T07:51:30;101520.69;;;17.75;76.59
78613;BME280;67933;51.060;3.638;2023-07-22T07:53:56;101519.56;;;17.66;76.15
78613;BME280;67933;51.060;3.638;2023-07-22T07:56:23;101524.06;;;18.00;74.72
78613;BME280;67933;51.060;3.638;2023-07-22T07:58:50;101517.88;;;18.89;72.39
78613;BME280;67933;51.060;3.638;2023-07-22T08:01:16;101520.72;;;19.51;69.16
78613;BME280;67933;51.060;3.638;2023-07-22T08:03:42;101521.59;;;20.35;67.89
78613;BME280;67933;51.060;3.638;2023-07-22T08:06:08;101520.22;;;20.29;66.22
78613;BME280;67933;51.060;3.638;2023-07-22T08:08:34;101521.31;;;21.28;63.23
78613;BME280;67933;51.060;3.638;2023-07-22T08:11:06;101512.75;;;21.23;62.40
78613;BME280;67933;51.060;3.638;2023-07-22T08:13:31;101520.59;;;20.76;63.91
78613;BME280;67933;51.060;3.638;2023-07-22T08:15:59;101523.97;;;20.59;64.41
78613;BME280;67933;51.060;3.638;2023-07-22T08:18:24;101520.44;;;20.38;65.04
78613;BME280;67933;51.060;3.638;2023-07-22T08:20:52;101521.03;;;20.41;65.25
78613;BME280;67933;51.060;3.638;2023-07-22T08:23:17;101529.91;;;20.62;63.41
78613;BME280;67933;51.060;3.638;2023-07-22T08:25:42;101523.94;;;21.08;62.77
78613;BME280;67933;51.060;3.638;2023-07-22T08:28:08;101520.16;;;21.40;61.00
78613;BME280;67933;51.060;3.638;2023-07-22T08:30:34;101525.78;;;22.14;59.79
78613;BME280;67933;51.060;3.638;2023-07-22T08:32:59;101508.44;;;22.81;56.81
78613;BME280;67933;51.060;3.638;2023-07-22T08:35:25;101512.69;;;22.19;57.14
78613;BME280;67933;51.060;3.638;2023-07-22T08:37:51;101504.25;;;21.66;59.15
78613;BME280;67933;51.060;3.638;2023-07-22T08:40:17;101502.53;;;22.68;57.53
78613;BME280;67933;51.060;3.638;2023-07-22T08:42:45;101498.09;;;22.39;55.68
78613;BME280;67933;51.060;3.638;2023-07-22T08:45:11;101493.75;;;22.19;58.51
78613;BME280;67933;51.060;3.638;2023-07-22T08:47:46;101500.41;;;21.49;59.33
78613;BME280;67933;51.060;3.638;2023-07-22T08:50:14;101492.00;;;21.62;57.59
78613;BME280;67933;51.060;3.638;2023-07-22T08:52:41;101489.41;;;22.45;55.18
78613;BME280;67933;51.060;3.638;2023-07-22T08:55:07;101486.66;;;23.00;52.57
78613;BME280;67933;51.060;3.638;2023-07-22T08:57:35;101480.94;;;23.03;53.28
78613;BME280;67933;51.060;3.638;2023-07-22T09:00:02;101490.25;;;21.99;53.39
78613;BME280;67933;51.060;3.638;2023-07-22T09:02:32;101495.00;;;21.30;56.48
78613;BME280;67933;51.060;3.638;2023-07-22T09:04:58;101493.97;;;21.11;56.09
78613;BME280;67933;51.060;3.638;2023-07-22T09:07:24;101491.72;;;21.74;54.24
78613;BME280;67933;51.060;3.638;2023-07-22T09:09:50;101485.19;;;21.67;55.51
78613;BME280;67933;51.060;3.638;2023-07-22T09:12:17;101494.31;;;21.28;56.08
78613;BME280;67933;51.060;3.638;2023-07-22T09:14:42;101489.25;;;20.94;56.99
78613;BME280;67933;51.060;3.638;2023-07-22T09:17:09;101486.34;;;21.26;56.80
78613;BME280;67933;51.060;3.638;2023-07-22T09:19:34;101489.19;;;21.34;56.13
78613;BME280;67933;51.060;3.638;2023-07-22T09:21:59;101493.34;;;20.79;57.79
78613;BME280;67933;51.060;3.638;2023-07-22T09:24:26;101493.34;;;20.79;58.05
78613;BME280;67933;51.060;3.638;2023-07-22T09:26:53;101485.34;;;21.18;57.51
78613;BME280;67933;51.060;3.638;2023-07-22T09:29:32;101481.38;;;21.60;55.55
78613;BME280;67933;51.060;3.638;2023-07-22T09:31:58;101485.44;;;23.48;50.02
78613;BME280;67933;51.060;3.638;2023-07-22T09:34:23;101479.94;;;23.75;48.35
78613;BME280;67933;51.060;3.638;2023-07-22T09:36:51;101478.66;;;23.87;45.38
78613;BME280;67933;51.060;3.638;2023-07-22T09:39:17;101476.84;;;23.34;46.80
78613;BME280;67933;51.060;3.638;2023-07-22T09:41:43;101477.53;;;22.83;48.78
78613;BME280;67933;51.060;3.638;2023-07-22T09:44:11;101474.69;;;24.67;45.25
78613;BME280;67933;51.060;3.638;2023-07-22T09:46:40;101473.59;;;24.94;43.03
78613;BME280;67933;51.060;3.638;2023-07-22T09:49:08;101471.94;;;24.93;41.00
78613;BME280;67933;51.060;3.638;2023-07-22T09:51:39;101466.69;;;25.48;40.35
78613;BME280;67933;51.060;3.638;2023-07-22T09:54:05;101456.19;;;25.37;39.32
78613;BME280;67933;51.060;3.638;2023-07-22T09:56:32;101465.69;;;25.57;39.60
78613;BME280;67933;51.060;3.638;2023-07-22T09:59:04;101459.59;;;25.23;38.94
78613;BME280;67933;51.060;3.638;2023-07-22T10:01:31;101478.91;;;25.12;39.64
78613;BME280;67933;51.060;3.638;2023-07-22T10:03:57;101473.69;;;24.68;40.91
78613;BME280;67933;51.060;3.638;2023-07-22T10:06:28;101447.34;;;25.43;38.60
78613;BME280;67933;51.060;3.638;2023-07-22T10:08:55;101459.66;;;26.19;39.10
78613;BME280;67933;51.060;3.638;2023-07-22T10:11:22;101450.75;;;25.37;38.78
78613;BME280;67933;51.060;3.638;2023-07-22T10:13:51;101452.63;;;24.54;38.70
78613;BME280;67933;51.060;3.638;2023-07-22T10:16:18;101457.78;;;23.54;38.92
78613;BME280;67933;51.060;3.638;2023-07-22T10:18:44;101450.66;;;24.04;39.38
78613;BME280;67933;51.060;3.638;2023-07-22T10:21:10;101445.03;;;24.32;38.80
78613;BME280;67933;51.060;3.638;2023-07-22T10:23:38;101449.38;;;25.33;38.24
78613;BME280;67933;51.060;3.638;2023-07-22T10:26:05;101449.56;;;25.40;36.76
78613;BME280;67933;51.060;3.638;2023-07-22T10:28:31;101455.03;;;26.35;36.28
78613;BME280;67933;51.060;3.638;2023-07-22T10:30:57;101449.88;;;26.01;35.05
78613;BME280;67933;51.060;3.638;2023-07-22T10:33:24;101451.75;;;25.93;36.03
78613;BME280;67933;51.060;3.638;2023-07-22T10:36:05;101451.44;;;25.47;35.81
78613;BME280;67933;51.060;3.638;2023-07-22T10:38:31;101450.94;;;25.68;35.30
78613;BME280;67933;51.060;3.638;2023-07-22T10:40:58;101448.69;;;25.88;36.29
78613;BME280;67933;51.060;3.638;2023-07-22T10:43:33;101449.38;;;25.17;37.50
78613;BME280;67933;51.060;3.638;2023-07-22T10:46:06;101458.00;;;24.46;38.48
78613;BME280;67933;51.060;3.638;2023-07-22T10:48:36;101461.22;;;24.15;39.34
78613;BME280;67933;51.060;3.638;2023-07-22T10:51:20;101464.59;;;24.43;38.96
78613;BME280;67933;51.060;3.638;2023-07-22T10:53:47;101444.19;;;24.81;38.43
78613;BME280;67933;51.060;3.638;2023-07-22T10:56:14;101436.38;;;24.78;38.79
78613;BME280;67933;51.060;3.638;2023-07-22T11:06:29;101422.91;;;25.67;37.54
78613;BME280;67933;51.060;3.638;2023-07-22T11:08:55;101417.91;;;25.95;36.75
78613;BME280;67933;51.060;3.638;2023-07-22T11:11:20;101411.88;;;26.94;33.88
78613;BME280;67933;51.060;3.638;2023-07-22T11:13:46;101413.28;;;28.32;32.70
78613;BME280;67933;51.060;3.638;2023-07-22T11:16:12;101413.75;;;26.94;34.76
78613;BME280;67933;51.060;3.638;2023-07-22T11:18:41;101425.97;;;26.67;35.53
78613;BME280;67933;51.060;3.638;2023-07-22T11:21:11;101415.28;;;25.39;36.61
78613;BME280;67933;51.060;3.638;2023-07-22T11:23:36;101421.75;;;26.56;36.45
78613;BME280;67933;51.060;3.638;2023-07-22T11:26:03;101415.72;;;25.91;36.12
78613;BME280;67933;51.060;3.638;2023-07-22T11:28:29;101420.44;;;24.67;39.76
78613;BME280;67933;51.060;3.638;2023-07-22T11:30:55;101430.53;;;23.37;41.70
78613;BME280;67933;51.060;3.638;2023-07-22T11:33:21;101430.38;;;22.86;44.06
78613;BME280;67933;51.060;3.638;2023-07-22T11:35:47;101428.38;;;21.96;45.18
78613;BME280;67933;51.060;3.638;2023-07-22T11:38:12;101429.81;;;21.25;46.40
78613;BME280;67933;51.060;3.638;2023-07-22T11:40:38;101442.41;;;20.95;48.56
78613;BME280;67933;51.060;3.638;2023-07-22T11:43:04;101441.22;;;20.69;49.36
78613;BME280;67933;51.060;3.638;2023-07-22T11:45:30;101449.72;;;20.55;50.87
78613;BME280;67933;51.060;3.638;2023-07-22T11:47:56;101453.41;;;20.23;53.36
78613;BME280;67933;51.060;3.638;2023-07-22T11:50:34;101461.13;;;20.07;54.83
78613;BME280;67933;51.060;3.638;2023-07-22T11:52:59;101478.63;;;19.92;56.12
78613;BME280;67933;51.060;3.638;2023-07-22T11:55:25;101463.50;;;19.49;58.08
78613;BME280;67933;51.060;3.638;2023-07-22T11:57:54;101465.09;;;19.41;59.29
78613;BME280;67933;51.060;3.638;2023-07-22T12:00:20;101463.81;;;19.24;58.87
78613;BME280;67933;51.060;3.638;2023-07-22T12:02:46;101464.47;;;19.37;58.53
78613;BME280;67933;51.060;3.638;2023-07-22T12:05:20;101457.47;;;19.46;57.71
78613;BME280;67933;51.060;3.638;2023-07-22T12:07:46;101462.19;;;19.65;57.41
78613;BME280;67933;51.060;3.638;2023-07-22T12:10:12;101455.63;;;19.57;55.50
78613;BME280;67933;51.060;3.638;2023-07-22T12:15:20;101465.75;;;19.75;56.33
78613;BME280;67933;51.060;3.638;2023-07-22T12:17:59;101455.41;;;19.70;55.07
78613;BME280;67933;51.060;3.638;2023-07-22T12:20:31;101468.22;;;19.78;54.12
78613;BME280;67933;51.060;3.638;2023-07-22T12:22:59;101469.31;;;19.96;53.76
78613;BME280;67933;51.060;3.638;2023-07-22T12:25:25;101451.50;;;20.05;52.57
78613;BME280;67933;51.060;3.638;2023-07-22T12:27:51;101455.13;;;20.24;52.20
78613;BME280;67933;51.060;3.638;2023-07-22T12:30:16;101450.66;;;21.03;50.70
78613;BME280;67933;51.060;3.638;2023-07-22T12:32:42;101442.16;;;22.40;46.90
78613;BME280;67933;51.060;3.638;2023-07-22T12:35:08;101434.47;;;23.25;45.21
78613;BME280;67933;51.060;3.638;2023-07-22T12:37:34;101426.88;;;24.74;43.41
78613;BME280;67933;51.060;3.638;2023-07-22T12:39:59;101425.78;;;25.25;41.84
78613;BME280;67933;51.060;3.638;2023-07-22T12:42:25;101435.13;;;24.14;43.11
78613;BME280;67933;51.060;3.638;2023-07-22T12:44:51;101432.22;;;23.03;44.99
78613;BME280;67933;51.060;3.638;2023-07-22T12:47:17;101419.88;;;22.83;45.84
78613;BME280;67933;51.060;3.638;2023-07-22T12:49:42;101410.72;;;23.01;45.27
78613;BME280;67933;51.060;3.638;2023-07-22T12:52:07;101428.91;;;23.96;43.26
78613;BME280;67933;51.060;3.638;2023-07-22T12:54:37;101403.09;;;24.60;41.42
78613;BME280;67933;51.060;3.638;2023-07-22T12:57:04;101411.53;;;25.07;41.47